Time;durP1;ratioP1;P1;durP2;ratioP2;P2;SDS_P1;SDS_P2;PMS_P1;PMS_P2;Temp;Humidity;BMP_temperature;BMP_pressure;BME280_temperature;BME280_humidity;BME280_pressure;Samples;Min_cycle;Max_cycle;Signal;HPM_P1;HPM_P2
2023/07/16 00:01:03;;;;;;;;;;;;;;;25.42;61.63;99773.84;4445960;32;34814;-77
2023/07/16 00:03:31;;;;;;;;;;;;;;;25.27;62.10;99765.25;4445742;32;33461;-79
2023/07/16 00:05:59;;;;;;;;;;;;;;;25.25;62.25;99761.75;4446042;32;34141;-77
2023/07/16 00:08:26;;;;;;;;;;;;;;;25.29;62.09;99760.78;4447744;32;34214;-77
2023/07/16 00:10:53;;;;;;;;;;;;;;;25.43;61.57;99765.88;4445420;32;34032;-79
2023/07/16 00:13:21;;;;;;;;;;;;;;;25.50;61.25;99764.00;4447421;32;33067;-78
2023/07/16 00:15:49;;;;;;;;;;;;;;;25.43;61.43;99762.34;4449906;32;33083;-79
2023/07/16 00:18:16;;;;;;;;;;;;;;;25.21;62.00;99767.09;4447811;32;34185;-77
2023/07/16 00:20:43;;;;;;;;;;;;;;;25.20;62.19;99766.19;4445751;32;34705;-77
2023/07/16 00:23:11;;;;;;;;;;;;;;;25.17;62.42;99760.97;4444476;32;31454;-80
2023/07/16 00:25:38;;;;;;;;;;;;;;;25.23;62.27;99766.19;4448108;32;34605;-78
2023/07/16 00:28:05;;;;;;;;;;;;;;;25.13;62.42;99761.91;4449538;32;34922;-78
2023/07/16 00:30:33;;;;;;;;;;;;;;;25.15;62.26;99765.41;4429256;32;32617;-79
2023/07/16 00:33:00;;;;;;;;;;;;;;;25.01;62.68;99759.44;4440474;32;33251;-77
2023/07/16 00:35:28;;;;;;;;;;;;;;;25.13;62.36;99761.91;4444348;32;35130;-78
2023/07/16 00:37:55;;;;;;;;;;;;;;;24.89;63.12;99766.66;4440582;32;34670;-79
2023/07/16 00:40:22;;;;;;;;;;;;;;;25.05;62.70;99758.47;4449645;32;34369;-77
2023/07/16 00:42:50;;;;;;;;;;;;;;;24.65;64.04;99756.44;4442910;32;33390;-77
2023/07/16 00:45:17;;;;;;;;;;;;;;;24.72;63.88;99763.38;4444847;32;34727;-78
2023/07/16 00:47:45;;;;;;;;;;;;;;;24.81;63.71;99759.72;4440179;32;34714;-78
2023/07/16 00:50:13;;;;;;;;;;;;;;;24.76;63.90;99765.06;4437340;32;34221;-78
2023/07/16 00:52:40;;;;;;;;;;;;;;;24.90;63.38;99757.81;4436226;32;33734;-78
2023/07/16 00:55:08;;;;;;;;;;;;;;;24.78;63.72;99752.69;4434576;32;34296;-79
2023/07/16 00:57:36;;;;;;;;;;;;;;;24.56;64.89;99745.94;4432868;32;34000;-76
2023/07/16 01:00:03;;;;;;;;;;;;;;;24.52;65.19;99740.69;4437198;32;33912;-78
2023/07/16 01:02:32;;;;;;;;;;;;;;;24.59;65.06;99741.50;4444654;32;32782;-79
2023/07/16 01:05:00;;;;;;;;;;;;;;;24.43;65.74;99746.06;4438026;32;34167;-78
2023/07/16 01:07:27;;;;;;;;;;;;;;;24.47;65.77;99737.22;4439419;32;34019;-79
2023/07/16 01:09:55;;;;;;;;;;;;;;;24.45;65.73;99738.97;4428650;32;34175;-79
2023/07/16 01:12:22;;;;;;;;;;;;;;;24.51;65.46;99741.59;4436099;32;33827;-77
2023/07/16 01:14:51;;;;;;;;;;;;;;;24.46;65.40;99735.44;4441817;32;33559;-77
2023/07/16 01:17:18;;;;;;;;;;;;;;;24.47;65.39;99734.56;4442058;32;34057;-77
2023/07/16 01:19:45;;;;;;;;;;;;;;;24.43;65.65;99735.47;4442260;32;34833;-79
2023/07/16 01:22:32;;;;;;;;;;;;;;;24.35;65.91;99737.34;4442797;32;33097;-76
2023/07/16 01:25:03;;;;;;;;;;;;;;;24.16;66.57;99746.41;4447857;32;34305;-77
2023/07/16 01:27:34;;;;;;;;;;;;;;;24.19;66.60;99747.25;4443209;32;34252;-79
2023/07/16 01:30:03;;;;;;;;;;;;;;;24.24;66.36;99740.13;4433985;32;33369;-76
2023/07/16 01:32:31;;;;;;;;;;;;;;;24.02;66.78;99739.50;4428908;32;33358;-79
2023/07/16 01:35:00;;;;;;;;;;;;;;;23.98;66.85;99743.06;4435019;32;34574;-79
2023/07/16 01:37:27;;;;;;;;;;;;;;;24.07;66.19;99737.69;4435419;32;34013;-76
2023/07/16 01:39:55;;;;;;;;;;;;;;;24.24;65.24;99733.94;4445519;32;34124;-79
2023/07/16 01:42:22;;;;;;;;;;;;;;;24.29;64.92;99738.28;4440225;32;32810;-77
2023/07/16 01:44:49;;;;;;;;;;;;;;;24.19;65.42;99735.78;4442534;32;34213;-77
2023/07/16 01:47:33;;;;;;;;;;;;;;;24.09;65.77;99741.19;4437510;32;33328;-79
2023/07/16 01:50:02;;;;;;;;;;;;;;;24.16;65.61;99736.69;4448403;32;34646;-76
2023/07/16 01:52:30;;;;;;;;;;;;;;;24.06;65.92;99738.56;4443994;32;33109;-79
2023/07/16 01:54:57;;;;;;;;;;;;;;;24.20;65.46;99732.22;4445201;32;34412;-76
2023/07/16 01:57:24;;;;;;;;;;;;;;;24.07;65.74;99737.69;4451091;32;34165;-78
2023/07/16 01:59:52;;;;;;;;;;;;;;;24.23;65.05;99738.38;4440681;32;34446;-77
2023/07/16 02:02:19;;;;;;;;;;;;;;;24.33;64.35;99736.50;4444076;32;33061;-79
2023/07/16 02:04:46;;;;;;;;;;;;;;;24.00;64.90;99724.53;4445176;32;34243;-78
2023/07/16 02:07:14;;;;;;;;;;;;;;;24.04;65.33;99721.84;4447656;32;34133;-78
2023/07/16 02:09:41;;;;;;;;;;;;;;;23.98;66.12;99729.84;4445828;32;34908;-78
2023/07/16 02:12:08;;;;;;;;;;;;;;;23.98;66.29;99729.84;4444943;32;34024;-79
2023/07/16 02:14:36;;;;;;;;;;;;;;;23.86;66.84;99728.22;4440797;32;34058;-77
2023/07/16 02:17:03;;;;;;;;;;;;;;;23.40;68.37;99733.03;4447886;32;32521;-78
2023/07/16 02:19:31;;;;;;;;;;;;;;;23.61;67.70;99727.56;4441560;32;35003;-78
2023/07/16 02:21:58;;;;;;;;;;;;;;;23.71;67.33;99718.63;4447989;32;33724;-79
2023/07/16 02:24:28;;;;;;;;;;;;;;;23.79;67.07;99720.34;4444384;32;33711;-77
2023/07/16 02:26:55;;;;;;;;;;;;;;;23.78;67.04;99713.25;4439172;32;32713;-77
2023/07/16 02:29:22;;;;;;;;;;;;;;;23.40;68.71;99717.19;4449336;32;34759;-78
2023/07/16 02:31:49;;;;;;;;;;;;;;;23.50;68.66;99718.84;4445766;32;33376;-77
2023/07/16 02:34:17;;;;;;;;;;;;;;;23.61;68.31;99711.69;4443643;32;34310;-79
2023/07/16 02:36:44;;;;;;;;;;;;;;;23.59;68.33;99717.88;4431518;32;33985;-77
2023/07/16 02:39:12;;;;;;;;;;;;;;;23.38;69.05;99726.87;4439319;32;34574;-77
2023/07/16 02:41:39;;;;;;;;;;;;;;;23.52;68.53;99725.00;4441155;32;33998;-76
2023/07/16 02:44:08;;;;;;;;;;;;;;;23.44;68.55;99719.78;4449798;32;34678;-77
2023/07/16 02:46:36;;;;;;;;;;;;;;;23.47;68.32;99724.13;4447707;32;33892;-79
2023/07/16 02:49:04;;;;;;;;;;;;;;;23.69;67.12;99719.53;4444934;32;34918;-78
2023/07/16 02:51:31;;;;;;;;;;;;;;;23.62;67.37;99723.12;4445908;32;34107;-77
2023/07/16 02:53:58;;;;;;;;;;;;;;;23.68;67.25;99723.97;4444331;32;33623;-78
2023/07/16 02:56:26;;;;;;;;;;;;;;;23.69;66.89;99730.12;4445997;32;34032;-77
2023/07/16 02:58:53;;;;;;;;;;;;;;;23.69;66.95;99728.34;4447307;32;32930;-79
2023/07/16 03:01:20;;;;;;;;;;;;;;;23.59;67.33;99724.03;4443801;32;33718;-77
2023/07/16 03:03:48;;;;;;;;;;;;;;;23.54;67.99;99728.50;4441170;32;33992;-79
2023/07/16 03:06:16;;;;;;;;;;;;;;;23.42;68.17;99728.63;4448211;32;34821;-77
2023/07/16 03:08:50;;;;;;;;;;;;;;;23.34;68.21;99728.69;4443608;32;34599;-76
2023/07/16 03:11:18;;;;;;;;;;;;;;;23.32;68.23;99733.97;4446474;32;34136;-77
2023/07/16 03:13:45;;;;;;;;;;;;;;;23.50;67.55;99734.69;4440783;32;34393;-79
2023/07/16 03:16:15;;;;;;;;;;;;;;;23.53;66.93;99734.69;4447680;32;33477;-76
2023/07/16 03:18:44;;;;;;;;;;;;;;;23.54;66.88;99734.66;4431569;32;34977;-77
2023/07/16 03:21:11;;;;;;;;;;;;;;;23.47;67.11;99738.25;4450746;32;33112;-78
2023/07/16 03:23:39;;;;;;;;;;;;;;;23.42;66.78;99736.53;4442341;32;33902;-79
2023/07/16 03:26:06;;;;;;;;;;;;;;;23.36;67.23;99738.34;4440314;32;33999;-79
2023/07/16 03:28:33;;;;;;;;;;;;;;;23.45;67.13;99741.78;4428715;32;33888;-79
2023/07/16 03:31:02;;;;;;;;;;;;;;;23.49;66.89;99743.53;4445909;32;33507;-76
2023/07/16 03:33:29;;;;;;;;;;;;;;;23.38;67.40;99750.69;4440855;32;34140;-79
2023/07/16 03:35:57;;;;;;;;;;;;;;;23.45;67.14;99741.78;4444879;32;36504;-79
2023/07/16 03:38:24;;;;;;;;;;;;;;;23.38;67.45;99745.41;4445164;32;34868;-79
2023/07/16 03:40:52;;;;;;;;;;;;;;;23.32;67.36;99747.19;4449758;32;32925;-79
2023/07/16 03:43:19;;;;;;;;;;;;;;;23.47;67.05;99740.91;4441436;32;34722;-78
2023/07/16 03:45:47;;;;;;;;;;;;;;;23.54;67.00;99747.88;4447580;32;34883;-77
2023/07/16 03:48:14;;;;;;;;;;;;;;;23.52;67.28;99746.12;4443699;32;34188;-79
2023/07/16 03:50:41;;;;;;;;;;;;;;;23.58;67.34;99748.72;4450073;32;32930;-78
2023/07/16 03:53:09;;;;;;;;;;;;;;;23.50;67.62;99755.84;4438284;32;33525;-76
2023/07/16 03:55:36;;;;;;;;;;;;;;;23.59;67.24;99755.78;4449231;32;33817;-78
2023/07/16 03:58:04;;;;;;;;;;;;;;;23.60;66.82;99754.88;4436179;32;34716;-77
2023/07/16 04:00:32;;;;;;;;;;;;;;;23.46;67.04;99759.41;4445039;32;33482;-77
2023/07/16 04:03:00;;;;;;;;;;;;;;;23.52;66.96;99754.06;4447661;32;34160;-79
2023/07/16 04:05:27;;;;;;;;;;;;;;;23.45;67.37;99757.66;4451046;32;34979;-79
2023/07/16 04:07:55;;;;;;;;;;;;;;;23.67;66.80;99769.78;4438570;32;32403;-77
2023/07/16 04:10:22;;;;;;;;;;;;;;;23.49;67.48;99764.69;4447262;32;33249;-80
2023/07/16 04:12:49;;;;;;;;;;;;;;;23.58;67.65;99769.00;4443036;32;33492;-77
2023/07/16 04:15:17;;;;;;;;;;;;;;;23.65;67.61;99768.94;4435293;32;32495;-78
2023/07/16 04:17:44;;;;;;;;;;;;;;;23.66;67.71;99776.00;4440144;32;34775;-77
2023/07/16 04:20:11;;;;;;;;;;;;;;;23.57;68.58;99767.25;4450647;32;34058;-78
2023/07/16 04:22:38;;;;;;;;;;;;;;;23.61;68.80;99769.84;4431153;32;33985;-80
2023/07/16 04:25:06;;;;;;;;;;;;;;;23.87;68.44;99763.47;4448501;32;33957;-79
2023/07/16 04:27:33;;;;;;;;;;;;;;;23.83;68.95;99759.09;4440331;32;35613;-80
2023/07/16 04:30:01;;;;;;;;;;;;;;;23.91;68.86;99765.19;4444977;32;33459;-77
2023/07/16 04:32:28;;;;;;;;;;;;;;;23.70;69.02;99768.88;4445758;32;32447;-77
2023/07/16 04:34:56;;;;;;;;;;;;;;;24.09;67.69;99774.72;4450142;32;34847;-77
2023/07/16 04:37:23;;;;;;;;;;;;;;;24.12;67.85;99777.31;4440078;32;34048;-79
2023/07/16 04:39:51;;;;;;;;;;;;;;;24.39;66.92;99781.41;4441089;32;33533;-78
2023/07/16 04:42:20;;;;;;;;;;;;;;;24.39;67.40;99784.06;4438371;32;34199;-77
2023/07/16 04:44:47;;;;;;;;;;;;;;;24.44;67.37;99779.59;4443788;32;34631;-77
2023/07/16 04:47:15;;;;;;;;;;;;;;;24.28;67.62;99778.91;4449508;32;34067;-79
2023/07/16 04:49:42;;;;;;;;;;;;;;;24.48;66.49;99781.31;4450758;32;34295;-79
2023/07/16 04:52:09;;;;;;;;;;;;;;;24.61;66.73;99781.16;4442586;32;34692;-76
2023/07/16 04:54:37;;;;;;;;;;;;;;;24.75;66.15;99779.22;4446679;32;33964;-77
2023/07/16 04:57:07;;;;;;;;;;;;;;;24.84;65.72;99781.75;4441512;32;34089;-80
2023/07/16 04:59:34;;;;;;;;;;;;;;;24.91;65.54;99791.34;4439934;32;32369;-80
2023/07/16 05:02:04;;;;;;;;;;;;;;;25.17;64.86;99787.47;4449774;32;34274;-79
2023/07/16 05:04:32;;;;;;;;;;;;;;;25.29;64.31;99784.66;4445625;32;34726;-78
2023/07/16 05:07:03;;;;;;;;;;;;;;;25.31;64.21;99784.62;4441699;32;34647;-80
2023/07/16 05:09:31;;;;;;;;;;;;;;;25.46;63.69;99786.19;4447894;32;33230;-77
2023/07/16 05:11:58;;;;;;;;;;;;;;;25.51;63.44;99776.34;4444399;32;34157;-77
2023/07/16 05:14:26;;;;;;;;;;;;;;;25.46;63.48;99784.38;4450051;32;34211;-79
2023/07/16 05:16:54;;;;;;;;;;;;;;;25.74;62.17;99789.22;4448705;32;34268;-79
2023/07/16 05:19:21;;;;;;;;;;;;;;;26.03;61.21;99782.53;4443116;32;33249;-77
2023/07/16 05:21:48;;;;;;;;;;;;;;;25.96;61.81;99788.84;4437146;32;32976;-79
2023/07/16 05:24:16;;;;;;;;;;;;;;;26.14;61.39;99780.56;4452887;32;34349;-79
2023/07/16 05:26:43;;;;;;;;;;;;;;;26.14;60.61;99777.03;4448306;32;34229;-79
2023/07/16 05:29:10;;;;;;;;;;;;;;;26.17;60.65;99777.81;4444876;32;34068;-79
2023/07/16 05:31:38;;;;;;;;;;;;;;;26.43;59.78;99784.44;4444780;32;34197;-78
2023/07/16 05:34:05;;;;;;;;;;;;;;;26.27;60.09;99776.75;4446566;32;33838;-80
2023/07/16 05:36:33;;;;;;;;;;;;;;;26.63;58.84;99776.06;4440142;32;34275;-79
2023/07/16 05:39:00;;;;;;;;;;;;;;;26.76;58.19;99782.84;4437291;32;34116;-77
2023/07/16 05:41:27;;;;;;;;;;;;;;;26.90;57.77;99784.34;4453917;32;34012;-79
2023/07/16 05:43:54;;;;;;;;;;;;;;;26.93;57.53;99790.47;4442207;32;34136;-79
2023/07/16 05:46:22;;;;;;;;;;;;;;;26.86;57.73;99784.38;4440618;32;34234;-80
2023/07/16 05:48:49;;;;;;;;;;;;;;;26.92;57.49;99788.69;4447682;32;33264;-78
2023/07/16 05:51:17;;;;;;;;;;;;;;;27.23;56.42;99794.19;4450872;32;34177;-80
2023/07/16 05:53:44;;;;;;;;;;;;;;;27.30;56.05;99802.06;4450198;32;35116;-78
2023/07/16 05:56:12;;;;;;;;;;;;;;;27.50;55.54;99791.78;4442722;32;33713;-79
2023/07/16 05:58:42;;;;;;;;;;;;;;;27.50;55.35;99797.13;4445537;32;33504;-78
2023/07/16 06:01:10;;;;;;;;;;;;;;;27.53;54.89;99797.06;4438348;32;33852;-80
2023/07/16 06:03:37;;;;;;;;;;;;;;;27.78;54.26;99791.12;4445825;32;33911;-79
2023/07/16 06:06:05;;;;;;;;;;;;;;;27.84;53.96;99802.47;4445113;32;34172;-78
2023/07/16 06:08:32;;;;;;;;;;;;;;;27.89;53.95;99793.50;4428530;32;33872;-79
2023/07/16 06:11:00;;;;;;;;;;;;;;;27.94;54.27;99797.81;4450739;32;33659;-79
2023/07/16 06:13:27;;;;;;;;;;;;;;;28.08;53.31;99793.91;4445747;32;33983;-77
2023/07/16 06:15:54;;;;;;;;;;;;;;;28.08;53.39;99799.22;4444520;32;33929;-80
2023/07/16 06:18:22;;;;;;;;;;;;;;;28.24;53.35;99795.25;4444637;32;34178;-77
2023/07/16 06:20:51;;;;;;;;;;;;;;;28.31;53.46;99791.47;4447386;32;34075;-77
2023/07/16 06:23:19;;;;;;;;;;;;;;;28.39;53.35;99794.78;4445029;32;34127;-76
2023/07/16 06:25:49;;;;;;;;;;;;;;;28.32;52.43;99792.31;4447513;32;34452;-77
2023/07/16 06:28:16;;;;;;;;;;;;;;;28.66;51.93;99786.06;4443851;32;32503;-79
2023/07/16 06:30:44;;;;;;;;;;;;;;;28.66;51.76;99791.41;4444313;32;34673;-78
2023/07/16 06:33:11;;;;;;;;;;;;;;;28.46;51.31;99787.50;4439522;32;34601;-78
2023/07/16 06:35:38;;;;;;;;;;;;;;;28.73;51.00;99793.84;4438029;32;34198;-76
2023/07/16 06:38:06;;;;;;;;;;;;;;;28.97;50.54;99794.00;4446518;32;33260;-78
2023/07/16 06:40:33;;;;;;;;;;;;;;;29.21;50.39;99795.94;4447448;32;33864;-77
2023/07/16 06:43:00;;;;;;;;;;;;;;;29.30;49.54;99793.88;4435595;32;34232;-83
2023/07/16 06:45:28;;;;;;;;;;;;;;;29.52;49.48;99784.25;4439672;32;33860;-78
2023/07/16 06:47:55;;;;;;;;;;;;;;;29.72;49.04;99788.94;4452973;32;33685;-81
2023/07/16 06:50:22;;;;;;;;;;;;;;;29.80;49.10;99799.34;4449679;32;34728;-77
2023/07/16 06:52:50;;;;;;;;;;;;;;;29.66;48.06;99789.13;4447132;32;34032;-78
2023/07/16 06:55:17;;;;;;;;;;;;;;;29.96;47.94;99784.56;4445688;32;34072;-79
2023/07/16 06:57:44;;;;;;;;;;;;;;;30.12;47.22;99789.34;4444176;32;33807;-77
2023/07/16 07:00:11;;;;;;;;;;;;;;;30.31;46.39;99789.56;4441737;32;35284;-80
2023/07/16 07:02:39;;;;;;;;;;;;;;;30.44;45.79;99790.00;4450571;32;34116;-79
2023/07/16 07:05:06;;;;;;;;;;;;;;;30.51;45.94;99786.16;4443491;32;34957;-77
2023/07/16 07:07:34;;;;;;;;;;;;;;;30.81;45.43;99793.94;4438283;32;32553;-77
2023/07/16 07:10:01;;;;;;;;;;;;;;;30.96;45.19;99788.03;4449960;32;34840;-78
2023/07/16 07:12:29;;;;;;;;;;;;;;;30.91;45.10;99790.03;4441025;32;34829;-78
2023/07/16 07:14:56;;;;;;;;;;;;;;;30.88;44.99;99787.44;4439992;32;34173;-77
2023/07/16 07:17:23;;;;;;;;;;;;;;;31.25;44.71;99794.00;4450086;32;33677;-78
2023/07/16 07:19:51;;;;;;;;;;;;;;;31.18;43.92;99793.41;4448871;32;34997;-77
2023/07/16 07:22:18;;;;;;;;;;;;;;;31.41;43.60;99795.16;4428693;32;33907;-78
2023/07/16 07:24:49;;;;;;;;;;;;;;;31.49;43.66;99790.38;4447048;32;35064;-78
2023/07/16 07:27:16;;;;;;;;;;;;;;;31.77;42.84;99789.19;4441682;32;33649;-77
2023/07/16 07:29:46;;;;;;;;;;;;;;;31.99;42.90;99785.56;4439860;32;33840;-77
2023/07/16 07:32:13;;;;;;;;;;;;;;;32.15;42.23;99785.81;4429212;32;33452;-78
2023/07/16 07:34:41;;;;;;;;;;;;;;;32.46;41.60;99787.97;4441150;32;34928;-79
2023/07/16 07:37:08;;;;;;;;;;;;;;;32.61;40.76;99783.75;4436827;32;34298;-79
2023/07/16 07:39:36;;;;;;;;;;;;;;;32.75;40.77;99783.09;4426296;32;34985;-78
2023/07/16 07:42:04;;;;;;;;;;;;;;;32.76;39.53;99785.72;4443604;32;34128;-78
2023/07/16 07:44:31;;;;;;;;;;;;;;;33.06;39.91;99785.19;4446156;32;34780;-79
2023/07/16 07:46:59;;;;;;;;;;;;;;;33.12;39.90;99779.53;4439618;32;34122;-77
2023/07/16 07:49:26;;;;;;;;;;;;;;;33.44;39.49;99772.59;4442702;32;33592;-78
2023/07/16 07:51:55;;;;;;;;;;;;;;;33.36;38.61;99779.28;4440249;32;32459;-79
2023/07/16 07:54:22;;;;;;;;;;;;;;;33.68;37.75;99772.31;4453591;32;34070;-77
2023/07/16 07:56:49;;;;;;;;;;;;;;;33.70;38.13;99783.84;4447869;32;31736;-77
2023/07/16 07:59:17;;;;;;;;;;;;;;;33.99;37.09;99768.03;4452874;32;33912;-78
2023/07/16 08:01:44;;;;;;;;;;;;;;;34.17;36.87;99772.47;4446742;32;34424;-79
2023/07/16 08:04:12;;;;;;;;;;;;;;;34.37;37.34;99781.28;4452326;32;34487;-78
2023/07/16 08:06:58;;;;;;;;;;;;;;;34.62;36.27;99776.28;4438837;32;34299;-77
2023/07/16 08:09:26;;;;;;;;;;;;;;;34.52;36.15;99774.16;4443824;32;34628;-77
2023/07/16 08:11:53;;;;;;;;;;;;;;;34.90;36.29;99768.53;4419723;32;34024;-78
2023/07/16 08:14:21;;;;;;;;;;;;;;;35.13;35.57;99773.44;4433233;32;35289;-76
2023/07/16 08:16:49;;;;;;;;;;;;;;;35.43;35.88;99768.12;4444686;32;34062;-79
2023/07/16 08:19:16;;;;;;;;;;;;;;;35.27;34.90;99772.69;4452109;32;34965;-78
2023/07/16 08:21:44;;;;;;;;;;;;;;;35.51;34.56;99777.59;4451391;32;34803;-78
2023/07/16 08:24:11;;;;;;;;;;;;;;;35.68;35.21;99777.50;4447409;32;34168;-78
2023/07/16 08:26:38;;;;;;;;;;;;;;;35.67;34.82;99775.75;4439104;32;33809;-77
2023/07/16 08:29:06;;;;;;;;;;;;;;;35.98;34.23;99768.50;4450024;32;35024;-77
2023/07/16 08:31:33;;;;;;;;;;;;;;;36.07;33.49;99761.69;4448031;32;34994;-78
2023/07/16 08:34:01;;;;;;;;;;;;;;;36.35;34.00;99771.63;4446030;32;33671;-79
2023/07/16 08:36:31;;;;;;;;;;;;;;;36.57;33.65;99766.63;4446690;32;34218;-79
2023/07/16 08:38:58;;;;;;;;;;;;;;;36.51;34.05;99761.62;4441941;32;32717;-78
2023/07/16 08:41:26;;;;;;;;;;;;;;;36.84;32.58;99763.16;4438023;32;34916;-79
2023/07/16 08:43:53;;;;;;;;;;;;;;;37.10;33.15;99757.84;4447484;32;34906;-79
2023/07/16 08:46:21;;;;;;;;;;;;;;;37.26;32.63;99757.72;4429790;32;33466;-79
2023/07/16 08:48:48;;;;;;;;;;;;;;;37.38;31.92;99755.06;4420244;32;33956;-78
2023/07/16 08:51:16;;;;;;;;;;;;;;;37.22;32.20;99758.91;4439016;32;34771;-80
2023/07/16 08:53:44;;;;;;;;;;;;;;;37.62;31.88;99764.34;4439198;32;33900;-78
2023/07/16 08:56:11;;;;;;;;;;;;;;;37.64;31.57;99768.69;4445955;32;34025;-77
2023/07/16 08:58:38;;;;;;;;;;;;;;;37.83;31.20;99768.28;4446643;32;34850;-79
2023/07/16 09:01:06;;;;;;;;;;;;;;;37.95;30.63;99777.38;4442167;32;34110;-77
2023/07/16 09:03:33;;;;;;;;;;;;;;;37.89;31.40;99770.53;4446075;32;34037;-78
2023/07/16 09:06:00;;;;;;;;;;;;;;;37.95;31.34;99772.81;4436990;32;32717;-80
2023/07/16 09:08:28;;;;;;;;;;;;;;;38.15;30.71;99766.06;4430188;32;34085;-79
2023/07/16 09:10:56;;;;;;;;;;;;;;;38.15;31.10;99765.16;4449345;32;34109;-78
2023/07/16 09:13:27;;;;;;;;;;;;;;;38.37;30.34;99766.38;4442598;32;34510;-78
2023/07/16 09:15:56;;;;;;;;;;;;;;;38.48;30.44;99770.03;4446023;32;32981;-77
2023/07/16 09:18:24;;;;;;;;;;;;;;;38.62;28.64;99760.94;4443463;32;33707;-79
2023/07/16 09:20:58;;;;;;;;;;;;;;;38.63;30.21;99768.06;4447633;32;35159;-77
2023/07/16 09:23:29;;;;;;;;;;;;;;;38.79;30.37;99757.00;4448367;32;33965;-78
2023/07/16 09:25:56;;;;;;;;;;;;;;;38.86;29.97;99774.50;4447681;32;33027;-78
2023/07/16 09:28:23;;;;;;;;;;;;;;;38.41;30.20;99762.47;4434328;32;34361;-77
2023/07/16 09:30:51;;;;;;;;;;;;;;;38.49;30.39;99763.63;4446268;32;34143;-80
2023/07/16 09:33:19;;;;;;;;;;;;;;;38.59;30.18;99763.00;4439002;32;34985;-79
2023/07/16 09:35:50;;;;;;;;;;;;;;;38.43;30.52;99761.38;4446618;32;32930;-77
2023/07/16 09:38:18;;;;;;;;;;;;;;;38.71;30.27;99760.28;4446752;32;35015;-77
2023/07/16 09:40:45;;;;;;;;;;;;;;;38.88;29.81;99761.72;4429080;32;35529;-78
2023/07/16 09:43:12;;;;;;;;;;;;;;;39.09;29.96;99763.84;4444595;32;34392;-78
2023/07/16 09:45:40;;;;;;;;;;;;;;;39.21;29.11;99768.34;4445286;32;33064;-78
2023/07/16 09:48:09;;;;;;;;;;;;;;;39.04;29.51;99766.03;4449365;32;34753;-79
2023/07/16 09:50:36;;;;;;;;;;;;;;;39.04;28.64;99760.59;4436676;32;34761;-78
2023/07/16 09:53:04;;;;;;;;;;;;;;;39.10;28.60;99762.88;4437527;32;33724;-79
2023/07/16 09:55:33;;;;;;;;;;;;;;;38.85;28.97;99748.44;4446292;32;33480;-80
2023/07/16 09:58:01;;;;;;;;;;;;;;;38.90;29.29;99757.06;4444871;32;34858;-77
2023/07/16 10:00:29;;;;;;;;;;;;;;;39.10;29.32;99754.75;4435877;32;32671;-79
2023/07/16 10:02:57;;;;;;;;;;;;;;;39.23;29.03;99755.53;4437366;32;34182;-78
2023/07/16 10:05:25;;;;;;;;;;;;;;;38.63;29.41;99757.25;4432972;32;33417;-80
2023/07/16 10:07:53;;;;;;;;;;;;;;;38.51;29.03;99758.13;4447914;32;33932;-79
2023/07/16 10:10:21;;;;;;;;;;;;;;;38.64;28.12;99748.16;4442800;32;35062;-77
2023/07/16 10:12:56;;;;;;;;;;;;;;;38.88;28.78;99745.47;4433485;32;33950;-80
2023/07/16 10:15:27;;;;;;;;;;;;;;;38.98;28.58;99739.38;4449479;32;34244;-80
2023/07/16 10:17:54;;;;;;;;;;;;;;;39.24;29.26;99741.03;4436744;32;32479;-78
2023/07/16 10:20:42;;;;;;;;;;;;;;;39.12;28.41;99737.41;4445143;32;33526;-78
2023/07/16 10:23:13;;;;;;;;;;;;;;;39.19;28.94;99742.34;4429737;32;34679;-80
2023/07/16 10:25:41;;;;;;;;;;;;;;;39.28;28.65;99739.81;4434850;32;33218;-78
2023/07/16 10:28:08;;;;;;;;;;;;;;;39.30;27.58;99740.53;4452386;32;35205;-81
2023/07/16 10:30:36;;;;;;;;;;;;;;;39.19;28.29;99736.94;4449375;32;34447;-77
2023/07/16 10:33:10;;;;;;;;;;;;;;;39.13;27.87;99735.56;4441561;32;34498;-78
2023/07/16 10:35:40;;;;;;;;;;;;;;;39.05;28.12;99729.84;4434720;32;33542;-77
2023/07/16 10:38:08;;;;;;;;;;;;;;;38.69;28.79;99734.28;4445132;32;33865;-77
2023/07/16 10:40:39;;;;;;;;;;;;;;;38.82;29.07;99740.50;4446228;32;33964;-78
2023/07/16 10:43:07;;;;;;;;;;;;;;;38.83;28.90;99742.25;4445507;32;34926;-78
2023/07/16 10:45:34;;;;;;;;;;;;;;;38.43;29.62;99739.72;4445588;32;34219;-77
2023/07/16 10:48:01;;;;;;;;;;;;;;;38.39;29.69;99737.38;4437728;32;34605;-77
2023/07/16 10:50:31;;;;;;;;;;;;;;;38.08;30.33;99735.00;4448473;32;34000;-78
2023/07/16 10:52:59;;;;;;;;;;;;;;;38.18;30.23;99734.34;4436276;32;34228;-81
2023/07/16 10:55:26;;;;;;;;;;;;;;;38.50;30.50;99738.31;4444404;32;33834;-77
2023/07/16 10:57:54;;;;;;;;;;;;;;;38.59;29.92;99734.09;4446503;32;33938;-79
2023/07/16 11:00:21;;;;;;;;;;;;;;;39.10;29.65;99733.09;4446726;32;33609;-78
2023/07/16 11:02:51;;;;;;;;;;;;;;;39.21;29.31;99735.81;4445717;32;34277;-78
2023/07/16 11:05:19;;;;;;;;;;;;;;;39.12;29.14;99731.12;4442609;32;33246;-79
2023/07/16 11:07:47;;;;;;;;;;;;;;;39.03;27.92;99726.41;4443413;32;34874;-79
2023/07/16 11:10:20;;;;;;;;;;;;;;;38.91;28.74;99722.75;4428467;32;33379;-79
2023/07/16 11:12:52;;;;;;;;;;;;;;;38.90;28.84;99727.25;4445176;32;33975;-78
2023/07/16 11:15:31;;;;;;;;;;;;;;;39.22;27.62;99721.31;4442422;32;33834;-78
2023/07/16 11:17:58;;;;;;;;;;;;;;;39.23;28.03;99717.59;4431396;32;34281;-77
2023/07/16 11:20:26;;;;;;;;;;;;;;;38.85;28.40;99718.63;4433286;32;34742;-79
2023/07/16 11:22:53;;;;;;;;;;;;;;;39.21;27.96;99716.84;4445056;32;34148;-78
2023/07/16 11:25:23;;;;;;;;;;;;;;;39.26;27.51;99711.97;4445327;32;32911;-79
2023/07/16 11:27:54;;;;;;;;;;;;;;;39.26;28.09;99716.53;4446278;32;34269;-80
2023/07/16 11:30:24;;;;;;;;;;;;;;;39.33;27.97;99715.09;4447668;32;34150;-77
2023/07/16 11:32:53;;;;;;;;;;;;;;;39.39;27.24;99711.00;4420515;32;34028;-77
2023/07/16 11:35:21;;;;;;;;;;;;;;;39.63;27.11;99720.00;4438437;32;35033;-77
2023/07/16 11:37:49;;;;;;;;;;;;;;;39.78;26.59;99712.50;4443474;32;34973;-77
2023/07/16 11:40:17;;;;;;;;;;;;;;;39.74;26.68;99715.59;4442744;32;34282;-78
2023/07/16 11:42:44;;;;;;;;;;;;;;;39.99;26.72;99722.69;4447348;32;33936;-78
2023/07/16 11:45:18;;;;;;;;;;;;;;;40.27;25.94;99714.03;4444130;32;34631;-80
2023/07/16 11:47:46;;;;;;;;;;;;;;;40.09;26.24;99716.41;4446500;32;34863;-79
2023/07/16 11:50:15;;;;;;;;;;;;;;;40.27;25.92;99713.19;4443116;32;33705;-78
2023/07/16 11:52:43;;;;;;;;;;;;;;;40.49;25.90;99713.22;4444170;32;34080;-76
2023/07/16 11:55:10;;;;;;;;;;;;;;;40.62;25.83;99712.19;4444726;32;33185;-80
2023/07/16 11:57:38;;;;;;;;;;;;;;;40.68;25.27;99717.09;4442155;32;34453;-79
2023/07/16 12:00:07;;;;;;;;;;;;;;;39.89;26.15;99714.41;4441488;32;34157;-77
2023/07/16 12:02:34;;;;;;;;;;;;;;;40.26;26.05;99708.75;4442049;32;34147;-80
2023/07/16 12:05:02;;;;;;;;;;;;;;;40.42;25.15;99711.13;4443534;32;32724;-80
2023/07/16 12:07:31;;;;;;;;;;;;;;;40.23;25.97;99707.12;4428384;32;32473;-81
2023/07/16 12:10:00;;;;;;;;;;;;;;;40.53;26.50;99718.37;4443216;32;34639;-78
2023/07/16 12:12:27;;;;;;;;;;;;;;;40.40;26.35;99711.25;4433871;32;33447;-78
2023/07/16 12:14:55;;;;;;;;;;;;;;;40.41;25.98;99712.97;4441418;32;34297;-80
2023/07/16 12:17:22;;;;;;;;;;;;;;;40.68;25.75;99712.56;4450618;32;34340;-78
2023/07/16 12:19:50;;;;;;;;;;;;;;;40.49;26.26;99707.78;4441616;32;34089;-78
2023/07/16 12:22:17;;;;;;;;;;;;;;;40.66;26.51;99708.22;4444365;32;34285;-79
2023/07/16 12:24:45;;;;;;;;;;;;;;;40.78;26.20;99712.69;4438932;32;33183;-78
2023/07/16 12:27:14;;;;;;;;;;;;;;;40.60;26.14;99714.16;4447744;32;34892;-78
2023/07/16 12:29:41;;;;;;;;;;;;;;;40.67;26.39;99709.97;4437996;32;34014;-78
2023/07/16 12:32:09;;;;;;;;;;;;;;;40.86;26.41;99707.47;4448749;32;34467;-78
2023/07/16 12:34:36;;;;;;;;;;;;;;;40.56;26.80;99715.41;4442034;32;33491;-76
2023/07/16 12:37:05;;;;;;;;;;;;;;;40.69;26.53;99714.28;4438794;32;32663;-77
2023/07/16 12:39:34;;;;;;;;;;;;;;;40.78;26.19;99707.28;4441041;32;34686;-77
2023/07/16 12:42:01;;;;;;;;;;;;;;;40.68;26.41;99706.25;4448634;32;34208;-77
2023/07/16 12:44:29;;;;;;;;;;;;;;;40.59;26.65;99707.03;4443316;32;33241;-78
2023/07/16 12:46:56;;;;;;;;;;;;;;;40.28;26.65;99698.66;4447019;32;34269;-77
2023/07/16 12:49:24;;;;;;;;;;;;;;;39.95;26.91;99700.38;4443632;32;33576;-77
2023/07/16 12:51:51;;;;;;;;;;;;;;;39.86;28.17;99701.06;4449391;32;33595;-78